TS53 weather

Flying Cap Valley Airport
Grapevine, Texas, United States

Public forecast

Using degrees Fahrenheit for public forecast. Weather courtesy of forecast.io.

Closest aviation weather report (METAR) to Flying Cap Valley Airport

Closest report is Dallas Fort Worth International Airport, 5.5 nm (10.1 km) ESE. Retrieved 2019/10/15 07:09 UTC (33 minutes ago):

KDFW 150709Z 14008KT 0SM R17C/P6000FT BR OVC001 21/21 A2990 RMK AO2 SFC VIS 1 3/4 T02110206

Closest aviation forecast (TAF) to Flying Cap Valley Airport

Closest forecast is Dallas Fort Worth International Airport, 5.5 nm (10.1 km) ESE. Retrieved 2019/10/15 06:22 UTC (1 hour ago):

TAF KDFW 150520Z 1506/1612 15009KT 4SM BR OVC003 FM151300 19009KT P6SM SCT006 BKN012 FM151500 23011KT P6SM SCT035 BKN080 FM152100 23012KT P6SM VCTS SCT050CB BKN200 FM160000 31015G25KT P6SM SCT025 BKN035